createdAt,value
2018-08-07T00:00:37.994Z,0.97
2018-08-07T00:03:07.250Z,0.60
2018-08-07T00:05:35.644Z,0.50
2018-08-07T00:08:04.217Z,0.53
2018-08-07T00:10:32.712Z,0.70
2018-08-07T00:13:01.059Z,0.90
2018-08-07T00:15:29.398Z,0.60
2018-08-07T00:17:57.851Z,0.87
2018-08-07T00:20:26.247Z,0.73
2018-08-07T00:22:54.823Z,0.77
2018-08-07T00:25:23.175Z,0.73
2018-08-07T00:27:51.536Z,0.40
2018-08-07T00:30:19.899Z,0.73
2018-08-07T00:32:48.293Z,0.50
2018-08-07T00:35:17.834Z,0.67
2018-08-07T00:37:46.198Z,0.80
2018-08-07T00:40:15.575Z,0.60
2018-08-07T00:42:44.540Z,0.73
2018-08-07T00:45:15.048Z,0.60
2018-08-07T00:47:43.331Z,0.67
2018-08-07T00:50:15.929Z,0.50
2018-08-07T00:52:45.360Z,0.70
2018-08-07T00:55:13.932Z,0.70
2018-08-07T00:57:42.410Z,0.83
2018-08-07T01:00:12.272Z,1.13
2018-08-07T01:02:40.854Z,0.77
2018-08-07T01:05:12.067Z,1.00
2018-08-07T01:07:40.725Z,0.70
2018-08-07T01:10:11.297Z,0.83
2018-08-07T01:12:39.683Z,0.90
2018-08-07T01:15:10.374Z,0.57
2018-08-07T01:17:38.730Z,0.77
2018-08-07T01:20:08.689Z,0.83
2018-08-07T01:22:39.182Z,0.60
2018-08-07T01:25:15.669Z,1.00
2018-08-07T01:27:44.071Z,1.20
2018-08-07T01:30:15.268Z,1.10
2018-08-07T01:32:43.597Z,0.90
2018-08-07T01:35:11.955Z,0.77
2018-08-07T01:37:40.377Z,0.60
2018-08-07T01:40:10.444Z,0.63
2018-08-07T01:42:38.707Z,0.90
2018-08-07T01:45:07.720Z,0.60
2018-08-07T01:47:36.120Z,0.90
2018-08-07T01:50:06.402Z,0.60
2018-08-07T01:52:34.903Z,1.00
2018-08-07T01:55:03.393Z,0.70
2018-08-07T01:57:31.813Z,0.80
2018-08-07T02:00:00.845Z,0.90
2018-08-07T02:02:28.983Z,1.00
2018-08-07T02:04:58.421Z,0.63
2018-08-07T02:07:27.768Z,1.00
2018-08-07T02:09:56.162Z,1.00
2018-08-07T02:12:24.478Z,0.97
2018-08-07T02:14:52.927Z,0.80
2018-08-07T02:17:21.270Z,0.80
2018-08-07T02:19:49.716Z,0.70
2018-08-07T02:22:18.055Z,0.70
2018-08-07T02:24:46.448Z,1.03
2018-08-07T02:27:14.799Z,0.80
2018-08-07T02:29:43.198Z,0.90
2018-08-07T02:32:11.498Z,1.00
2018-08-07T02:34:39.836Z,1.30
2018-08-07T02:37:08.195Z,1.20
2018-08-07T02:39:36.567Z,0.93
2018-08-07T02:42:04.876Z,1.10
2018-08-07T02:44:33.267Z,1.47
2018-08-07T02:47:01.683Z,1.40
2018-08-07T02:49:29.990Z,0.93
2018-08-07T02:51:58.474Z,0.90
2018-08-07T02:54:27.794Z,1.07
2018-08-07T02:56:56.196Z,1.03
2018-08-07T02:59:24.717Z,1.00
2018-08-07T03:01:53.095Z,1.00
2018-08-07T03:04:21.452Z,0.77
2018-08-07T03:06:49.819Z,1.00
2018-08-07T03:09:18.114Z,1.00
2018-08-07T03:11:46.449Z,1.17
2018-08-07T03:14:14.822Z,1.07
2018-08-07T03:16:43.198Z,1.00
2018-08-07T03:19:11.558Z,1.00
2018-08-07T03:21:39.860Z,1.37
2018-08-07T03:24:08.271Z,0.90
2018-08-07T03:26:36.639Z,0.77
2018-08-07T03:29:05.248Z,1.10
2018-08-07T03:31:33.575Z,1.10
2018-08-07T03:34:01.944Z,1.40
2018-08-07T03:36:30.307Z,1.10
2018-08-07T03:38:58.627Z,1.47
2018-08-07T03:41:26.998Z,1.20
2018-08-07T03:43:55.391Z,1.10
2018-08-07T03:46:23.769Z,0.83
2018-08-07T03:48:52.149Z,1.70
2018-08-07T03:51:20.543Z,1.20
2018-08-07T03:53:48.909Z,1.20
2018-08-07T03:56:17.278Z,1.17
2018-08-07T03:58:45.674Z,1.10
2018-08-07T04:01:14.062Z,1.00
2018-08-07T04:03:42.518Z,1.13
2018-08-07T04:06:10.853Z,1.00
2018-08-07T04:08:40.183Z,1.20
2018-08-07T04:11:08.596Z,1.30
2018-08-07T04:13:37.056Z,1.10
2018-08-07T04:16:05.456Z,1.50
2018-08-07T04:18:33.875Z,1.10
2018-08-07T04:21:01.954Z,1.10
2018-08-07T04:23:30.258Z,1.00
2018-08-07T04:25:58.652Z,1.10
2018-08-07T04:28:27.037Z,1.20
2018-08-07T04:30:55.396Z,0.93
2018-08-07T04:33:23.789Z,1.00
2018-08-07T04:35:52.094Z,1.20
2018-08-07T04:38:20.441Z,1.03
2018-08-07T04:40:49.731Z,1.13
2018-08-07T04:43:19.026Z,1.27
2018-08-07T04:45:47.388Z,1.00
2018-08-07T04:48:15.487Z,0.73
2018-08-07T04:50:43.834Z,0.97
2018-08-07T04:53:12.247Z,0.87
2018-08-07T04:55:40.614Z,1.07
2018-08-07T04:59:14.018Z,0.90
2018-08-07T05:01:42.327Z,0.90
2018-08-07T05:04:10.738Z,0.90
2018-08-07T05:06:39.080Z,0.80
2018-08-07T05:09:08.131Z,0.72
2018-08-07T05:11:36.548Z,0.78
2018-08-07T05:14:05.888Z,0.70
2018-08-07T05:16:34.277Z,0.80
2018-08-07T05:19:02.714Z,0.78
2018-08-07T05:21:31.122Z,0.70
2018-08-07T05:23:59.487Z,0.70
2018-08-07T05:26:27.864Z,0.80
2018-08-07T05:28:56.244Z,1.00
2018-08-07T05:31:24.581Z,0.50
2018-08-07T05:33:53.056Z,0.60
2018-08-07T05:36:21.396Z,0.62
2018-08-07T05:38:49.749Z,0.85
2018-08-07T05:41:18.125Z,0.90
2018-08-07T05:43:46.552Z,0.50
2018-08-07T05:46:14.966Z,0.60
2018-08-07T05:48:43.331Z,0.70
2018-08-07T05:51:11.775Z,1.05
2018-08-07T05:53:39.998Z,0.57
2018-08-07T05:56:08.316Z,0.82
2018-08-07T05:58:36.646Z,0.82
2018-08-07T06:01:05.052Z,0.75
2018-08-07T06:03:33.301Z,0.90
2018-08-07T06:06:02.665Z,0.80
2018-08-07T06:08:30.995Z,0.90
2018-08-07T06:10:59.384Z,0.90
2018-08-07T07:35:25.893Z,0.50
2018-08-07T07:37:54.291Z,0.55
2018-08-07T07:40:22.701Z,0.35
2018-08-07T07:42:51.078Z,0.45
2018-08-07T07:45:20.196Z,0.50
2018-08-07T07:47:48.660Z,0.35
2018-08-07T07:50:19.817Z,0.60
2018-08-07T07:52:48.162Z,0.60
2018-08-07T07:55:17.195Z,0.45
2018-08-07T07:57:45.492Z,0.50
2018-08-07T08:00:18.521Z,0.60
2018-08-07T08:02:47.084Z,0.50
2018-08-07T08:05:15.540Z,0.50
2018-08-07T08:07:43.827Z,0.25
2018-08-07T08:10:12.172Z,0.30
2018-08-07T08:12:40.731Z,0.33
2018-08-07T08:15:12.847Z,0.30
2018-08-07T08:17:41.263Z,0.50
2018-08-07T08:20:11.846Z,0.50
2018-08-07T08:22:40.244Z,0.55
2018-08-07T08:25:09.867Z,0.45
2018-08-07T08:27:38.263Z,0.50
2018-08-07T08:30:09.891Z,0.70
2018-08-07T08:32:38.142Z,0.70
2018-08-07T08:35:08.423Z,0.50
2018-08-07T08:37:37.195Z,0.40
2018-08-07T08:40:06.909Z,0.40
2018-08-07T08:42:35.567Z,0.60
2018-08-07T08:45:04.004Z,0.40
2018-08-07T08:47:32.367Z,0.30
2018-08-07T08:50:00.707Z,0.35
2018-08-07T08:52:29.109Z,0.30
2018-08-07T08:54:57.467Z,0.40
2018-08-07T08:57:25.722Z,0.42
2018-08-07T08:59:55.031Z,0.40
2018-08-07T09:02:23.402Z,0.50
2018-08-07T09:04:51.823Z,0.50
2018-08-07T09:07:20.090Z,0.40
2018-08-07T09:09:48.386Z,0.30
2018-08-07T09:12:16.753Z,0.42
2018-08-07T09:14:45.177Z,0.35
2018-08-07T09:17:13.525Z,0.20
2018-08-07T09:19:42.134Z,0.40
2018-08-07T09:22:10.497Z,0.40
2018-08-07T09:24:38.776Z,0.70
2018-08-07T09:27:07.164Z,0.50
2018-08-07T09:29:35.550Z,0.30
2018-08-07T09:32:03.947Z,0.40
2018-08-07T09:34:32.341Z,0.40
2018-08-07T09:37:00.683Z,0.42
2018-08-07T09:39:29.040Z,0.40
2018-08-07T09:41:57.337Z,0.40
2018-08-07T09:44:25.752Z,0.37
2018-08-07T09:46:54.067Z,0.53
2018-08-07T09:49:22.344Z,0.50
2018-08-07T09:51:50.710Z,0.30
2018-08-07T09:54:20.081Z,0.50
2018-08-07T09:56:48.419Z,0.40
2018-08-07T09:59:16.841Z,0.40
2018-08-07T10:01:50.555Z,0.53
2018-08-07T10:04:18.933Z,0.45
2018-08-07T10:06:47.218Z,0.47
2018-08-07T10:09:15.514Z,0.30
2018-08-07T10:11:43.806Z,0.40
2018-08-07T10:14:12.183Z,0.30
2018-08-07T10:16:40.606Z,0.40
2018-08-07T10:19:08.926Z,0.50
2018-08-07T10:21:38.268Z,0.70
2018-08-07T10:24:07.634Z,0.35
2018-08-07T10:26:35.944Z,0.50
2018-08-07T10:29:04.290Z,0.50
2018-08-07T10:31:32.416Z,0.42
2018-08-07T10:34:00.765Z,0.33
2018-08-07T10:36:29.099Z,0.60
2018-08-07T10:38:57.433Z,0.45
2018-08-07T10:41:25.867Z,0.53
2018-08-07T10:43:54.249Z,0.72
2018-08-07T10:46:22.521Z,0.60
2018-08-07T10:48:50.836Z,0.60
2018-08-07T10:51:19.431Z,0.62
2018-08-07T10:53:48.001Z,0.50
2018-08-07T10:56:16.345Z,0.60
2018-08-07T10:58:44.651Z,0.50
2018-08-07T11:01:13.498Z,0.60
2018-08-07T11:03:41.839Z,0.65
2018-08-07T11:06:10.322Z,0.35
2018-08-07T11:08:38.797Z,0.57
2018-08-07T11:11:07.348Z,0.70
2018-08-07T11:13:35.702Z,0.40
2018-08-07T11:16:04.058Z,0.78
2018-08-07T11:18:32.427Z,0.50
2018-08-07T11:21:00.770Z,0.62
2018-08-07T11:23:29.106Z,0.50
2018-08-07T11:25:57.435Z,0.47
2018-08-07T11:28:25.858Z,0.50
2018-08-07T11:30:54.188Z,0.50
2018-08-07T11:33:22.593Z,0.57
2018-08-07T11:35:50.988Z,0.62
2018-08-07T11:38:19.204Z,0.55
2018-08-07T11:40:47.521Z,0.50
2018-08-07T11:43:15.903Z,0.45
2018-08-07T11:45:44.278Z,0.42
2018-08-07T11:48:12.657Z,0.50
2018-08-07T11:50:41.020Z,0.42
2018-08-07T11:53:09.412Z,0.57
2018-08-07T11:55:37.769Z,0.45
2018-08-07T11:58:06.492Z,0.60
2018-08-07T12:00:37.084Z,0.72
2018-08-07T12:03:08.302Z,0.55
2018-08-07T12:05:36.603Z,0.70
2018-08-07T12:08:05.327Z,0.50
2018-08-07T12:10:33.607Z,0.50
2018-08-07T12:13:01.976Z,0.65
2018-08-07T12:15:30.397Z,0.70
2018-08-07T12:17:58.721Z,0.47
2018-08-07T12:20:27.022Z,0.50
2018-08-07T12:22:55.350Z,0.60
2018-08-07T12:25:23.661Z,0.45
2018-08-07T12:29:22.220Z,0.62
2018-08-07T12:31:50.510Z,0.53
2018-08-07T12:34:19.499Z,0.55
2018-08-07T12:39:46.562Z,0.40
2018-08-07T12:42:14.878Z,0.50
2018-08-07T12:44:43.110Z,0.50
2018-08-07T12:47:11.402Z,0.40
2018-08-07T12:49:40.370Z,0.40
2018-08-07T12:52:09.002Z,0.37
2018-08-07T12:54:37.112Z,0.55
2018-08-07T12:57:05.466Z,0.70
2018-08-07T12:59:33.813Z,0.53
2018-08-07T13:02:02.101Z,0.88
2018-08-07T13:04:30.369Z,0.53
2018-08-07T13:06:58.666Z,0.40
2018-08-07T13:09:26.958Z,0.57
2018-08-07T13:11:55.294Z,0.50
2018-08-07T13:14:23.562Z,0.70
2018-08-07T13:16:51.900Z,0.60
2018-08-07T13:19:20.214Z,0.50
2018-08-07T13:21:48.595Z,0.42
2018-08-07T13:24:16.901Z,0.75
2018-08-07T13:26:45.210Z,0.53
2018-08-07T13:29:13.550Z,1.00
2018-08-07T13:31:41.879Z,0.60
2018-08-07T13:34:10.221Z,0.80
2018-08-07T13:36:39.535Z,0.60
2018-08-07T13:39:09.305Z,0.70
2018-08-07T13:41:37.630Z,0.42
2018-08-07T13:44:06.679Z,0.60
2018-08-07T13:46:35.011Z,0.60
2018-08-07T13:49:03.530Z,0.57
2018-08-07T13:51:31.780Z,0.62
2018-08-07T13:54:01.155Z,0.82
2018-08-07T13:56:29.431Z,0.75
2018-08-07T13:58:57.670Z,0.70
2018-08-07T14:01:26.012Z,0.75
2018-08-07T14:03:54.426Z,0.85
2018-08-07T14:06:22.738Z,0.60
2018-08-07T14:08:51.214Z,0.78
2018-08-07T14:11:19.542Z,0.95
2018-08-07T14:13:48.157Z,0.75
2018-08-07T14:16:16.481Z,0.60
2018-08-07T14:18:44.922Z,0.90
2018-08-07T14:21:13.225Z,0.82
2018-08-07T14:23:41.637Z,0.90
2018-08-07T14:26:10.536Z,0.68
2018-08-07T14:28:38.933Z,0.70
2018-08-07T14:31:07.766Z,0.95
2018-08-07T14:33:35.861Z,0.88
2018-08-07T14:36:04.240Z,0.70
2018-08-07T14:38:32.641Z,0.80
2018-08-07T14:41:00.963Z,0.90
2018-08-07T14:43:29.258Z,0.90
2018-08-07T14:45:57.539Z,0.70
2018-08-07T14:48:25.691Z,1.10
2018-08-07T14:50:54.073Z,0.80
2018-08-07T14:53:22.504Z,0.60
2018-08-07T14:55:50.866Z,0.90
2018-08-07T14:58:19.232Z,0.95
2018-08-07T15:00:47.467Z,0.90
2018-08-07T15:03:15.803Z,0.80
2018-08-07T15:05:44.216Z,0.68
2018-08-07T15:08:12.608Z,0.90
2018-08-07T15:10:40.939Z,0.78
2018-08-07T15:13:09.413Z,0.85
2018-08-07T15:15:37.887Z,1.02
2018-08-07T15:18:06.176Z,0.90
2018-08-07T15:20:34.589Z,1.05
2018-08-07T15:23:02.865Z,0.80
2018-08-07T15:25:31.275Z,0.60
2018-08-07T15:27:59.595Z,0.82
2018-08-07T15:30:28.497Z,0.70
2018-08-07T15:32:57.075Z,0.70
2018-08-07T15:35:26.862Z,0.70
2018-08-07T15:37:55.199Z,0.98
2018-08-07T15:40:25.658Z,0.90
2018-08-07T15:42:53.747Z,0.80
2018-08-07T15:45:23.485Z,0.95
2018-08-07T15:47:52.010Z,0.90
2018-08-07T15:50:21.135Z,0.70
2018-08-07T15:52:50.933Z,0.80
2018-08-07T15:55:20.863Z,0.95
2018-08-07T15:57:49.118Z,0.90
2018-08-07T16:00:22.321Z,1.10
2018-08-07T16:02:51.871Z,0.82
2018-08-07T16:05:20.236Z,0.70
2018-08-07T16:07:49.386Z,1.00
2018-08-07T16:10:18.735Z,1.00
2018-08-07T16:12:48.092Z,0.80
2018-08-07T16:15:16.534Z,0.90
2018-08-07T16:17:46.587Z,0.90
2018-08-07T16:20:14.958Z,1.00
2018-08-07T16:22:43.397Z,1.67
2018-08-07T16:25:13.721Z,0.90
2018-08-07T16:27:43.209Z,1.00
2018-08-07T16:30:15.527Z,0.88
2018-08-07T16:32:43.751Z,1.20
2018-08-07T16:35:12.769Z,0.75
2018-08-07T16:37:41.248Z,0.70
2018-08-07T16:40:11.617Z,1.20
2018-08-07T16:42:40.441Z,1.00
2018-08-07T16:45:10.668Z,0.88
2018-08-07T16:47:39.246Z,0.90
2018-08-07T16:50:09.248Z,0.70
2018-08-07T16:52:37.662Z,0.60
2018-08-07T16:55:06.400Z,0.68
2018-08-07T16:57:35.819Z,0.60
2018-08-07T17:00:06.320Z,0.82
2018-08-07T17:02:34.697Z,1.10
2018-08-07T17:05:03.034Z,0.70
2018-08-07T17:07:31.968Z,1.00
2018-08-07T17:10:00.357Z,0.80
2018-08-07T17:12:28.704Z,0.75
2018-08-07T17:14:57.080Z,0.78
2018-08-07T17:17:25.462Z,0.82
2018-08-07T17:19:53.732Z,0.82
2018-08-07T17:22:22.094Z,0.95
2018-08-07T17:24:50.484Z,0.60
2018-08-07T17:27:18.790Z,0.90
2018-08-07T17:29:47.278Z,0.60
2018-08-07T17:32:15.701Z,0.68
2018-08-07T17:34:44.076Z,0.80
2018-08-07T17:37:12.258Z,0.82
2018-08-07T17:39:40.710Z,0.88
2018-08-07T17:42:09.057Z,0.90
2018-08-07T17:44:37.543Z,0.60
2018-08-07T17:47:06.154Z,1.00
2018-08-07T17:49:34.606Z,1.02
2018-08-07T17:52:03.779Z,0.80
2018-08-07T17:54:32.192Z,1.32
2018-08-07T17:57:00.687Z,0.72
2018-08-07T17:59:28.981Z,0.70
2018-08-07T18:01:57.300Z,0.98
2018-08-07T18:04:25.715Z,0.75
2018-08-07T18:06:54.273Z,0.72
2018-08-07T18:09:22.576Z,1.10
2018-08-07T18:11:50.895Z,0.98
2018-08-07T18:14:19.604Z,0.98
2018-08-07T18:16:47.918Z,0.62
2018-08-07T18:19:16.414Z,0.70
2018-08-07T18:21:44.746Z,0.90
2018-08-07T18:24:13.058Z,1.00
2018-08-07T18:26:41.423Z,0.80
2018-08-07T18:29:09.813Z,0.82
2018-08-07T18:31:38.220Z,1.05
2018-08-07T18:34:06.603Z,1.20
2018-08-07T18:36:34.938Z,0.98
2018-08-07T18:39:04.034Z,1.02
2018-08-07T18:41:32.336Z,1.25
2018-08-07T18:44:00.795Z,1.70
2018-08-07T18:46:29.164Z,1.42
2018-08-07T18:48:57.471Z,1.87
2018-08-07T18:51:25.871Z,1.55
2018-08-07T18:53:54.315Z,1.22
2018-08-07T18:56:22.588Z,1.20
2018-08-07T18:58:50.989Z,1.15
2018-08-07T19:01:19.776Z,1.30
2018-08-07T19:03:48.150Z,0.82
2018-08-07T19:06:16.505Z,0.70
2018-08-07T19:08:44.810Z,1.17
2018-08-07T19:11:13.186Z,1.07
2018-08-07T19:13:41.546Z,0.90
2018-08-07T19:16:09.834Z,1.00
2018-08-07T19:18:38.202Z,0.88
2018-08-07T19:21:06.787Z,0.85
2018-08-07T19:23:35.241Z,0.80
2018-08-07T19:26:03.557Z,1.12
2018-08-07T19:28:31.943Z,0.78
2018-08-07T19:31:00.379Z,0.70
2018-08-07T19:33:28.684Z,0.93
2018-08-07T19:35:56.968Z,1.02
2018-08-07T19:38:25.327Z,0.80
2018-08-07T19:40:53.434Z,0.90
2018-08-07T19:43:21.775Z,1.22
2018-08-07T19:45:50.185Z,0.90
2018-08-07T19:48:18.547Z,1.00
2018-08-07T19:50:46.870Z,0.90
2018-08-07T19:53:15.242Z,1.10
2018-08-07T19:55:43.713Z,1.20
2018-08-07T19:58:11.694Z,1.10
2018-08-07T20:00:40.112Z,0.90
2018-08-07T20:03:08.245Z,1.12
2018-08-07T20:05:36.648Z,0.98
2018-08-07T20:08:05.068Z,1.10
2018-08-07T20:10:33.256Z,0.98
2018-08-07T20:13:01.714Z,1.02
2018-08-07T20:15:30.055Z,1.30
2018-08-07T20:17:58.495Z,1.00
2018-08-07T20:20:27.249Z,0.90
2018-08-07T20:22:56.064Z,0.72
2018-08-07T20:25:24.928Z,0.80
2018-08-07T20:27:53.477Z,0.62
2018-08-07T20:30:23.035Z,0.62
2018-08-07T20:32:52.832Z,0.75
2018-08-07T20:35:21.567Z,0.95
2018-08-07T20:37:50.080Z,0.90
2018-08-07T20:40:21.174Z,1.00
2018-08-07T20:42:49.809Z,0.95
2018-08-07T20:45:18.966Z,0.78
2018-08-07T20:47:47.613Z,1.00
2018-08-07T20:50:18.599Z,1.10
2018-08-07T20:52:47.239Z,0.82
2018-08-07T20:55:16.148Z,1.20
2018-08-07T20:57:44.487Z,1.15
2018-08-07T21:00:17.132Z,1.20
2018-08-07T21:02:45.603Z,1.42
2018-08-07T21:05:13.897Z,1.52
2018-08-07T21:07:43.350Z,1.40
2018-08-07T21:10:13.852Z,1.10
2018-08-07T21:12:42.587Z,0.60
2018-08-07T21:15:11.551Z,0.80
2018-08-07T21:17:39.853Z,0.80
2018-08-07T21:20:13.795Z,0.75
2018-08-07T21:22:42.224Z,0.80
2018-08-07T21:25:13.427Z,0.80
2018-08-07T21:27:42.026Z,0.80
2018-08-07T21:30:13.422Z,0.80
2018-08-07T21:32:41.964Z,0.85
2018-08-07T21:35:12.128Z,0.70
2018-08-07T21:37:40.896Z,0.57
2018-08-07T21:40:14.999Z,0.70
2018-08-07T21:42:43.854Z,0.70
2018-08-07T21:45:12.503Z,0.70
2018-08-07T21:47:40.828Z,0.65
2018-08-07T21:50:12.643Z,0.88
2018-08-07T21:52:41.072Z,0.93
2018-08-07T21:55:13.700Z,0.57
2018-08-07T21:59:54.925Z,0.57
2018-08-07T22:02:23.215Z,0.65
2018-08-07T22:04:51.676Z,0.62
2018-08-07T22:07:20.158Z,0.88
2018-08-07T22:09:48.551Z,0.47
2018-08-07T22:12:16.981Z,0.60
2018-08-07T22:14:45.328Z,0.85
2018-08-07T22:17:15.687Z,0.88
2018-08-07T22:19:44.058Z,0.50
2018-08-07T22:22:12.380Z,0.80
2018-08-07T22:24:40.687Z,1.02
2018-08-07T22:27:09.102Z,0.80
2018-08-07T22:29:37.478Z,1.02
2018-08-07T22:32:06.104Z,0.60
2018-08-07T22:34:34.404Z,0.70
2018-08-07T22:37:02.932Z,0.70
2018-08-07T22:39:31.328Z,0.93
2018-08-07T22:41:59.603Z,0.70
2018-08-07T22:44:27.950Z,0.40
2018-08-07T22:46:56.260Z,0.60
2018-08-07T22:49:24.544Z,0.70
2018-08-07T22:51:52.790Z,0.78
2018-08-07T22:54:21.148Z,0.45
2018-08-07T22:56:49.485Z,1.10
2018-08-07T22:59:17.869Z,0.70
2018-08-07T23:01:46.163Z,0.82
2018-08-07T23:04:15.680Z,0.62
2018-08-07T23:06:44.078Z,0.70
2018-08-07T23:09:12.507Z,0.78
2018-08-07T23:11:40.804Z,0.88
2018-08-07T23:14:09.206Z,0.60
2018-08-07T23:16:37.591Z,0.70
2018-08-07T23:19:06.028Z,0.80
2018-08-07T23:21:34.449Z,0.72
2018-08-07T23:24:02.825Z,0.60
2018-08-07T23:28:00.434Z,0.85
2018-08-07T23:30:28.829Z,0.65
2018-08-07T23:32:57.175Z,0.50
2018-08-07T23:35:25.533Z,0.98
2018-08-07T23:37:53.886Z,0.68
2018-08-07T23:40:22.314Z,0.82
2018-08-07T23:42:50.655Z,0.80
2018-08-07T23:45:19.121Z,0.50
2018-08-07T23:47:47.398Z,0.70
2018-08-07T23:50:15.756Z,0.85
2018-08-07T23:52:44.064Z,0.70
2018-08-07T23:55:12.575Z,0.78
2018-08-07T23:57:40.951Z,0.88
